createdAt,value
2023-01-06T00:01:14.715Z,11.56
2023-01-06T00:06:20.986Z,10.91
2023-01-06T00:11:25.083Z,12.44
2023-01-06T00:16:31.057Z,12.76
2023-01-06T00:21:39.016Z,17.57
2023-01-06T00:26:48.005Z,12.39
2023-01-06T00:31:53.984Z,12.11
2023-01-06T00:36:58.822Z,11.89
2023-01-06T00:42:06.157Z,11.93
2023-01-06T00:47:11.568Z,12.64
2023-01-06T00:52:19.275Z,13.83
2023-01-06T00:57:22.848Z,11.13
2023-01-06T01:02:28.982Z,13.37
2023-01-06T01:07:34.145Z,14.02
2023-01-06T01:12:40.751Z,13.11
2023-01-06T01:17:46.461Z,13.09
2023-01-06T01:22:51.315Z,13.80
2023-01-06T01:27:55.036Z,12.97
2023-01-06T01:32:59.086Z,12.69
2023-01-06T01:38:06.383Z,11.99
2023-01-06T01:43:13.054Z,13.46
2023-01-06T01:48:25.642Z,12.75
2023-01-06T01:53:33.200Z,13.06
2023-01-06T01:58:42.534Z,12.59
2023-01-06T02:03:48.866Z,12.74
2023-01-06T02:08:58.407Z,13.16
2023-01-06T02:14:11.274Z,12.87
2023-01-06T02:19:28.343Z,11.59
2023-01-06T02:25:06.560Z,11.78
2023-01-06T02:30:35.397Z,13.38
2023-01-06T02:35:54.696Z,12.62
2023-01-06T02:41:07.943Z,11.83
2023-01-06T02:46:19.498Z,8.29
2023-01-06T02:51:28.864Z,8.19
2023-01-06T02:56:40.405Z,10.13
2023-01-06T03:01:49.126Z,9.83
2023-01-06T03:06:57.388Z,8.92
2023-01-06T03:12:08.843Z,5.18
2023-01-06T03:17:12.932Z,5.10
2023-01-06T03:22:19.062Z,6.41
2023-01-06T03:27:28.085Z,9.50
2023-01-06T03:32:38.919Z,13.85
2023-01-06T03:37:52.538Z,10.37
2023-01-06T03:43:16.653Z,11.00
2023-01-06T03:48:35.444Z,11.16
2023-01-06T03:53:47.491Z,11.37
2023-01-06T03:58:56.747Z,8.35
2023-01-06T04:04:02.720Z,9.93
2023-01-06T04:09:07.982Z,7.07
2023-01-06T04:14:13.974Z,11.91
2023-01-06T04:19:17.809Z,10.59
2023-01-06T04:24:23.008Z,10.85
2023-01-06T04:29:26.589Z,11.84
2023-01-06T04:34:32.056Z,16.87
2023-01-06T04:39:39.715Z,13.51
2023-01-06T04:44:43.854Z,16.20
2023-01-06T04:49:49.460Z,14.39
2023-01-06T04:54:54.263Z,12.44
2023-01-06T04:59:57.760Z,13.44
2023-01-06T05:05:01.368Z,13.49
2023-01-06T05:10:10.453Z,13.92
2023-01-06T05:15:15.672Z,15.51
2023-01-06T05:20:21.483Z,16.02
2023-01-06T05:25:28.686Z,12.60
2023-01-06T05:30:32.587Z,12.58
2023-01-06T05:35:36.050Z,14.49
2023-01-06T05:40:43.540Z,12.92
2023-01-06T05:45:49.701Z,11.51
2023-01-06T05:50:53.364Z,16.15
2023-01-06T05:56:01.945Z,12.25
2023-01-06T06:01:08.523Z,13.01
2023-01-06T06:06:15.153Z,13.59
2023-01-06T06:11:20.752Z,12.40
2023-01-06T06:16:28.375Z,11.77
2023-01-06T06:21:32.318Z,12.95
2023-01-06T06:26:37.420Z,13.35
2023-01-06T06:31:41.037Z,13.52
2023-01-06T06:36:44.484Z,13.44
2023-01-06T06:41:49.617Z,14.08
2023-01-06T06:46:55.529Z,14.38
2023-01-06T06:52:01.411Z,13.84
2023-01-06T06:57:06.642Z,13.15
2023-01-06T07:02:10.289Z,12.76
2023-01-06T07:07:13.860Z,13.36
2023-01-06T07:12:21.121Z,13.01
2023-01-06T07:17:27.221Z,13.22
2023-01-06T07:22:33.501Z,12.95
2023-01-06T07:27:40.733Z,13.05
2023-01-06T07:32:46.669Z,9.93
2023-01-06T07:37:50.267Z,10.10
2023-01-06T07:42:55.398Z,10.39
2023-01-06T07:48:01.507Z,10.76
2023-01-06T07:53:05.414Z,10.10
2023-01-06T07:58:11.510Z,12.00
2023-01-06T08:03:15.808Z,11.70
2023-01-06T08:08:19.451Z,11.95
2023-01-06T08:13:24.458Z,10.76
2023-01-06T08:18:31.244Z,13.09
2023-01-06T08:23:35.264Z,14.76
2023-01-06T08:28:43.010Z,15.98
2023-01-06T08:33:47.371Z,15.03
2023-01-06T08:38:51.805Z,15.87
2023-01-06T08:43:58.584Z,14.77
2023-01-06T08:49:04.489Z,18.95
2023-01-06T08:54:14.608Z,15.87
2023-01-06T08:59:34.519Z,14.58
2023-01-06T09:04:42.979Z,13.73
2023-01-06T09:09:58.977Z,13.32
2023-01-06T09:15:05.026Z,12.95
2023-01-06T09:20:13.495Z,15.00
2023-01-06T09:25:21.615Z,15.03
2023-01-06T09:30:26.729Z,14.82
2023-01-06T09:35:30.382Z,15.14
2023-01-06T09:40:45.450Z,16.29
2023-01-06T09:45:55.141Z,16.06
2023-01-06T09:51:02.741Z,15.43
2023-01-06T09:56:09.622Z,16.02
2023-01-06T10:01:17.160Z,16.61
2023-01-06T10:06:29.596Z,15.76
2023-01-06T10:11:50.341Z,16.92
2023-01-06T10:17:16.748Z,15.02
2023-01-06T10:22:26.788Z,17.67
2023-01-06T10:27:36.979Z,16.59
2023-01-06T10:32:42.986Z,18.76
2023-01-06T10:37:53.943Z,15.73
2023-01-06T10:43:06.706Z,17.28
2023-01-06T10:48:18.261Z,17.99
2023-01-06T10:53:21.797Z,20.00
2023-01-06T10:58:34.837Z,17.92
2023-01-06T11:03:44.417Z,18.05
2023-01-06T11:08:50.920Z,19.04
2023-01-06T11:13:57.490Z,21.44
2023-01-06T11:19:04.646Z,18.60
2023-01-06T11:24:16.875Z,16.00
2023-01-06T11:29:27.126Z,18.96
2023-01-06T11:34:32.890Z,20.60
2023-01-06T11:39:38.016Z,34.08
2023-01-06T11:44:46.474Z,20.21
2023-01-06T11:49:53.494Z,18.93
2023-01-06T11:55:02.530Z,19.04
2023-01-06T12:00:26.175Z,20.00
2023-01-06T12:05:37.153Z,19.70
2023-01-06T12:10:45.469Z,18.87
2023-01-06T12:15:54.700Z,18.83
2023-01-06T12:21:04.898Z,21.42
2023-01-06T12:26:15.895Z,20.11
2023-01-06T12:31:27.845Z,18.96
2023-01-06T12:36:39.775Z,18.78
2023-01-06T12:41:50.105Z,19.22
2023-01-06T12:47:02.719Z,25.35
2023-01-06T12:52:11.910Z,18.80
2023-01-06T12:57:25.583Z,21.50
2023-01-06T13:02:44.318Z,18.93
2023-01-06T13:07:56.626Z,20.72
2023-01-06T13:13:21.181Z,21.37
2023-01-06T13:18:33.754Z,21.78
2023-01-06T13:23:55.055Z,25.17
2023-01-06T13:29:06.775Z,20.31
2023-01-06T13:34:42.645Z,20.29
2023-01-06T13:39:55.075Z,19.48
2023-01-06T13:45:02.625Z,21.68
2023-01-06T13:50:09.169Z,24.09
2023-01-06T13:55:29.795Z,21.30
2023-01-06T14:00:33.723Z,20.72
2023-01-06T14:05:50.929Z,20.74
2023-01-06T14:11:07.600Z,21.42
2023-01-06T14:16:13.634Z,22.02
2023-01-06T14:21:28.539Z,21.32
2023-01-06T14:26:50.056Z,18.88
2023-01-06T14:31:58.294Z,19.43
2023-01-06T14:37:03.859Z,19.78
2023-01-06T14:42:17.405Z,21.69
2023-01-06T14:47:28.714Z,27.43
2023-01-06T14:52:35.153Z,23.85
2023-01-06T14:57:42.642Z,19.89
2023-01-06T15:02:47.696Z,20.50
2023-01-06T15:07:58.640Z,19.97
2023-01-06T15:13:21.271Z,22.69
2023-01-06T15:18:25.840Z,21.04
2023-01-06T15:23:29.744Z,25.23
2023-01-06T15:28:36.255Z,27.07
2023-01-06T15:33:42.131Z,27.64
2023-01-06T15:38:50.276Z,28.98
2023-01-06T15:43:57.781Z,28.50
2023-01-06T15:49:01.571Z,30.20
2023-01-06T15:54:07.657Z,25.99
2023-01-06T15:59:15.802Z,25.93
2023-01-06T16:04:23.086Z,26.14
2023-01-06T16:09:30.821Z,26.53
2023-01-06T16:14:43.650Z,29.06
2023-01-06T16:19:51.244Z,27.86
2023-01-06T16:24:55.197Z,26.00
2023-01-06T16:30:11.313Z,27.94
2023-01-06T16:35:16.581Z,29.19
2023-01-06T16:40:21.479Z,32.86
2023-01-06T16:45:35.844Z,35.49
2023-01-06T16:50:44.564Z,37.78
2023-01-06T16:55:53.667Z,37.12
2023-01-06T17:06:58.875Z,36.65
2023-01-06T17:12:11.067Z,37.50
2023-01-06T17:17:22.415Z,39.85
2023-01-06T17:22:29.256Z,38.94
2023-01-06T17:27:36.265Z,39.58
2023-01-06T17:32:46.593Z,38.10
2023-01-06T17:37:50.211Z,39.08
2023-01-06T17:43:02.881Z,40.95
2023-01-06T17:48:13.051Z,40.46
2023-01-06T17:53:35.484Z,41.15
2023-01-06T17:58:40.557Z,37.55
2023-01-06T18:03:45.378Z,38.53
2023-01-06T18:08:51.191Z,39.60
2023-01-06T18:13:55.232Z,39.62
2023-01-06T18:19:05.659Z,39.64
2023-01-06T18:24:18.203Z,39.59
2023-01-06T18:29:23.869Z,40.08
2023-01-06T18:34:32.265Z,42.28
2023-01-06T18:39:50.291Z,43.30
2023-01-06T18:45:14.370Z,42.39
2023-01-06T18:50:27.162Z,40.31
2023-01-06T18:55:36.954Z,41.47
2023-01-06T19:00:42.425Z,38.40
2023-01-06T19:05:48.024Z,37.05
2023-01-06T19:10:51.673Z,36.25
2023-01-06T19:16:04.606Z,35.49
2023-01-06T19:21:15.869Z,34.87
2023-01-06T19:26:31.524Z,33.85
2023-01-06T19:31:39.320Z,37.45
2023-01-06T19:36:46.984Z,33.12
2023-01-06T19:41:54.353Z,34.52
2023-01-06T19:46:57.812Z,33.29
2023-01-06T19:52:16.270Z,34.04
2023-01-06T19:57:26.012Z,31.81
2023-01-06T20:02:32.905Z,32.39
2023-01-06T20:07:38.369Z,33.85
2023-01-06T20:12:44.707Z,32.35
2023-01-06T20:17:48.123Z,31.76
2023-01-06T20:22:55.249Z,31.16
2023-01-06T20:27:58.733Z,31.76
2023-01-06T20:33:02.308Z,31.21
2023-01-06T20:38:07.241Z,31.41
2023-01-06T20:43:13.095Z,35.36
2023-01-06T20:48:17.160Z,33.40
2023-01-06T20:53:22.037Z,32.82
2023-01-06T20:58:25.592Z,33.11
2023-01-06T21:03:31.647Z,33.45
2023-01-06T21:08:36.528Z,34.81
2023-01-06T21:13:40.100Z,33.62
2023-01-06T21:18:47.371Z,34.96
2023-01-06T21:23:52.572Z,39.74
2023-01-06T21:29:01.936Z,34.50
2023-01-06T21:34:05.527Z,38.32
2023-01-06T21:39:10.475Z,36.66
2023-01-06T21:44:18.388Z,34.52
2023-01-06T21:49:22.144Z,38.27
2023-01-06T21:54:27.559Z,33.37
2023-01-06T21:59:31.457Z,33.00
2023-01-06T22:04:37.341Z,33.83
2023-01-06T22:09:43.494Z,33.51
2023-01-06T22:14:51.723Z,39.20
2023-01-06T22:20:00.961Z,32.70
2023-01-06T22:25:06.463Z,33.11
2023-01-06T22:30:10.711Z,33.89
2023-01-06T22:35:17.616Z,34.96
2023-01-06T22:40:26.259Z,35.72
2023-01-06T22:45:29.749Z,40.03
2023-01-06T22:50:38.549Z,36.96
2023-01-06T22:55:46.522Z,36.08
2023-01-06T23:00:52.741Z,36.75
2023-01-06T23:05:56.857Z,36.57
2023-01-06T23:11:03.647Z,36.23
2023-01-06T23:16:11.302Z,37.97
2023-01-06T23:21:20.597Z,35.69
2023-01-06T23:26:30.079Z,37.12
2023-01-06T23:31:35.095Z,37.37
2023-01-06T23:36:38.643Z,38.79
2023-01-06T23:41:45.645Z,38.17
2023-01-06T23:46:51.738Z,38.48
2023-01-06T23:51:58.197Z,38.12
2023-01-06T23:57:02.930Z,38.63
